M I D A S
Marine Information and Data Acquisition System
Tripno 1102 of the Zeeleeuw from 2006-05-10 06:48:14 to 2006-05-10 14:04:03
Back to CruiseResearch ActivitiesStationsMapUnderway DataData graphs

EquipmentUnitsComment
TimeDGPSUTC
LatitudeDGPSDM.mWGS84
LongitudeDGPSDM.mWGS84
HeadingGyrodeg 
SOGDGPSknotsSpeed over ground
COGDGPSdegCourse over ground
DepthEcho soundermeters200 kHz
Missing or incorrect values are displayed as -999
Navigation data collected by the RV Zeeleeuw from 2006-05-10 06:44:12 to 2006-05-10 14:21:31
Time Latitude Longitude Heading SOG COG Depth
2006-05-10 06:45:17 51°13.614 2°56.031 110.1 3.9 288 -999
2006-05-10 06:46:17 51°13.642 2°55.922 122.1 4.9 299 -999
2006-05-10 06:47:17 51°13.688 2°55.81 125.2 4.8 303 -999
2006-05-10 06:48:17 51°13.714 2°55.724 103.6 2 290 -999
2006-05-10 06:49:17 51°13.726 2°55.738 47.2 0.7 37 -999
2006-05-10 06:50:17 51°13.712 2°55.722 31.1 0.6 218 -999
2006-05-10 06:51:17 51°13.75 2°55.704 337.7 5 335 9.6
2006-05-10 06:52:17 51°13.852 2°55.624 336.2 8 333 -999
2006-05-10 06:53:17 51°13.984 2°55.524 339.2 9.2 336 9.6
2006-05-10 06:54:17 51°14.123 2°55.418 337.9 9.3 333 -999
2006-05-10 06:55:17 51°14.25 2°55.279 320.5 9.3 316 -999
2006-05-10 06:56:17 51°14.352 2°55.091 314.7 9.6 311 10
2006-05-10 06:57:17 51°14.447 2°54.865 302.9 11.2 296 9.8
2006-05-10 06:58:17 51°14.523 2°54.559 300.1 12.7 296 10.1
2006-05-10 06:59:17 51°14.635 2°54.27 309 12.9 303 9.7
2006-05-10 07:00:17 51°14.755 2°53.991 319.3 12.5 314 9.5
2006-05-10 07:01:16 51°14.904 2°53.769 324.7 12.5 315 9
2006-05-10 07:02:17 51°15.057 2°53.535 330.3 12.5 323 9.2
2006-05-10 07:03:17 51°15.214 2°53.316 324 12.7 316 9.5
2006-05-10 07:04:17 51°15.371 2°53.097 329.7 12.6 320 10.1
2006-05-10 07:05:16 51°15.518 2°52.862 319.2 12.8 310 10.6
2006-05-10 07:06:16 51°15.6 2°52.546 288.1 13.4 280 11.2
2006-05-10 07:07:17 51°15.632 2°52.189 285.2 13.5 279 11.6
2006-05-10 07:08:17 51°15.671 2°51.837 285.8 13.5 280 12.1
2006-05-10 07:09:16 51°15.707 2°51.492 285.3 13.4 280 12.3
2006-05-10 07:10:16 51°15.745 2°51.142 286.1 13.4 280 12.4
2006-05-10 07:11:17 51°15.782 2°50.789 285.2 13 279 12.5
2006-05-10 07:12:17 51°15.818 2°50.451 285.9 12.8 280 12.5
2006-05-10 07:13:17 51°15.852 2°50.115 284.5 12.8 278 11.3
2006-05-10 07:14:16 51°15.885 2°49.785 284.5 12.9 279 10.3
2006-05-10 07:15:16 51°15.919 2°49.443 284.8 13.1 278 10.4
2006-05-10 07:16:17 51°15.954 2°49.092 285.2 13.3 278 11.4
2006-05-10 07:17:16 51°15.988 2°48.751 286.4 13.3 280 12.6
2006-05-10 07:18:16 51°16.023 2°48.401 285.2 13.4 278 14.5
2006-05-10 07:19:17 51°16.028 2°48.042 266.3 13.4 263 15.2
2006-05-10 07:20:17 51°16.068 2°47.7 290.1 13.2 283 15.6
2006-05-10 07:21:17 51°16.121 2°47.359 290.5 13.2 284 15.5
2006-05-10 07:22:17 51°16.172 2°47.02 290.4 13.1 284 13.5
2006-05-10 07:23:17 51°16.222 2°46.683 290.4 12.9 283 11.1
2006-05-10 07:24:17 51°16.27 2°46.347 289.2 12.9 282 9.8
2006-05-10 07:25:16 51°16.319 2°46.02 290.5 12.9 283 9.8
2006-05-10 07:26:17 51°16.381 2°45.686 300.6 12.8 293 10.1
2006-05-10 07:27:17 51°16.464 2°45.372 301.8 12.7 296 10.8
2006-05-10 07:28:17 51°16.573 2°45.082 309.3 12.7 301 11.6
2006-05-10 07:29:17 51°16.683 2°44.794 309.8 12.8 301 12.3
2006-05-10 07:30:17 51°16.794 2°44.501 310.4 13 301 13.8
2006-05-10 07:31:17 51°16.902 2°44.202 310.1 13.1 300 15.6
2006-05-10 07:32:16 51°17.01 2°43.906 310.4 13.1 301 14.8
2006-05-10 07:33:16 51°17.131 2°43.622 320.1 12.8 310 15
2006-05-10 07:34:17 51°17.273 2°43.361 320.2 12.8 311 13.6
2006-05-10 07:35:16 51°17.411 2°43.112 321.4 12.8 313 12.6
2006-05-10 07:36:16 51°17.553 2°42.863 320.3 12.8 312 13.4
2006-05-10 07:37:17 51°17.7 2°42.602 319.3 13.1 312 22.5
2006-05-10 07:38:17 51°17.844 2°42.344 320.4 13 312 24
2006-05-10 07:39:16 51°17.98 2°42.08 314.4 13.2 305 24.4
2006-05-10 07:40:17 51°18.111 2°41.792 315.1 13.2 306 23.6
2006-05-10 07:41:17 51°18.24 2°41.508 315 13.1 306 21.4
2006-05-10 07:42:17 51°18.366 2°41.227 315.9 13.1 306 19.5
2006-05-10 07:43:17 51°18.495 2°40.946 315.5 13 307 16.5
2006-05-10 07:44:17 51°18.624 2°40.67 316.8 13 309 19.5
2006-05-10 07:45:16 51°18.751 2°40.398 315 13 306 20.7
2006-05-10 07:46:17 51°18.883 2°40.12 315.2 12.9 308 23.7
2006-05-10 07:47:16 51°18.987 2°39.828 304.1 12.9 296 24
2006-05-10 07:48:17 51°19.089 2°39.516 305.9 12.9 299 26.2
2006-05-10 07:49:17 51°19.187 2°39.208 304.7 13 297 28.5
2006-05-10 07:50:17 51°19.284 2°38.9 304.1 13.1 295 28.7
2006-05-10 07:51:16 51°19.38 2°38.592 304.4 13.2 296 26.9
2006-05-10 07:52:17 51°19.47 2°38.267 299.7 13.2 291 23.7
2006-05-10 07:53:16 51°19.552 2°37.951 300.4 13 292 21.7
2006-05-10 07:54:17 51°19.632 2°37.625 300.6 13 292 22
2006-05-10 07:55:17 51°19.714 2°37.306 299.7 13 292 22.3
2006-05-10 07:56:17 51°19.796 2°36.99 299.7 12.9 293 22.1
2006-05-10 07:57:17 51°19.878 2°36.674 300.1 12.9 293 21.6
2006-05-10 07:58:16 51°19.96 2°36.363 300.2 12.9 292 22.1
2006-05-10 07:59:16 51°20.043 2°36.047 300.5 13 293 21.1
2006-05-10 08:00:16 51°20.126 2°35.73 301 12.9 293 17.7
2006-05-10 08:01:16 51°20.21 2°35.415 300.4 12.9 292 17.4
2006-05-10 08:02:17 51°20.297 2°35.091 300.4 13.2 293 25.9
2006-05-10 08:03:17 51°20.389 2°34.775 306.9 13.1 302 31.5
2006-05-10 08:04:17 51°20.508 2°34.482 309.6 13.2 301 29.1
2006-05-10 08:05:16 51°20.638 2°34.212 320.4 13.1 314 31.7
2006-05-10 08:06:16 51°20.786 2°33.957 319.8 13.2 313 31.6
2006-05-10 08:07:16 51°20.937 2°33.704 320.6 13.1 314 31.5
2006-05-10 08:08:17 51°21.09 2°33.443 320.2 13.1 313 32.2
2006-05-10 08:09:16 51°21.237 2°33.197 320.2 12.8 314 31
2006-05-10 08:10:17 51°21.385 2°32.95 319.6 12.5 314 25.4
2006-05-10 08:11:16 51°21.527 2°32.714 320.6 12.5 314 21.9
2006-05-10 08:12:17 51°21.675 2°32.474 320.8 12.5 314 24
2006-05-10 08:13:17 51°21.824 2°32.24 325.8 12.5 323 28.2
2006-05-10 08:14:16 51°22.008 2°32.092 339.9 12.7 334 31.8
2006-05-10 08:15:16 51°22.198 2°31.942 340.1 12.8 334 33
2006-05-10 08:16:16 51°22.387 2°31.791 340.3 12.7 333 31.3
2006-05-10 08:17:17 51°22.581 2°31.635 340.4 12.9 334 32.2
2006-05-10 08:18:16 51°22.77 2°31.488 340.2 12.8 334 31
2006-05-10 08:19:16 51°22.961 2°31.336 339.9 12.8 333 30.5
2006-05-10 08:20:17 51°23.156 2°31.184 340.7 12.7 334 26.2
2006-05-10 08:21:16 51°23.342 2°31.038 340.7 12.8 334 31.8
2006-05-10 08:22:16 51°23.533 2°30.89 340.3 12.8 334 32.6
2006-05-10 08:23:16 51°23.725 2°30.745 340.4 12.8 335 34.7
2006-05-10 08:24:16 51°23.917 2°30.602 340.8 12.8 335 33.5
2006-05-10 08:25:17 51°24.113 2°30.457 340.7 12.8 335 34.2
2006-05-10 08:26:17 51°24.305 2°30.317 339.6 12.7 334 34.3
2006-05-10 08:27:16 51°24.493 2°30.176 340.8 12.8 334 34.9
2006-05-10 08:28:16 51°24.683 2°30.028 340.4 12.7 334 34.3
2006-05-10 08:29:16 51°24.874 2°29.883 340.3 12.7 334 33.9
2006-05-10 08:30:17 51°25.065 2°29.731 340 12.7 334 33.3
2006-05-10 08:31:17 51°25.255 2°29.584 340.4 12.7 334 32.7
2006-05-10 08:32:17 51°25.445 2°29.439 340 12.5 335 30.2
2006-05-10 08:33:16 51°25.632 2°29.305 341 12.6 337 18.1
2006-05-10 08:34:16 51°25.826 2°29.18 339 12.4 337 12.2
2006-05-10 08:35:16 51°26.018 2°29.059 340.8 12.3 340 12.6
2006-05-10 08:36:17 51°26.215 2°28.929 340.4 12.7 338 23.3
2006-05-10 08:37:16 51°26.409 2°28.798 341.2 12.9 336 33.9
2006-05-10 08:38:17 51°26.61 2°28.658 339.6 13 336 35.4
2006-05-10 08:39:16 51°26.806 2°28.521 340.2 13 336 35.5
2006-05-10 08:40:17 51°27.005 2°28.377 339.6 13 335 35.7
2006-05-10 08:41:17 51°27.203 2°28.235 340.6 13 336 35.3
2006-05-10 08:42:16 51°27.395 2°28.095 340.6 13 335 35.7
2006-05-10 08:43:16 51°27.589 2°27.952 341.1 12.7 336 36
2006-05-10 08:44:16 51°27.786 2°27.844 342.1 12.7 337 32.4
2006-05-10 08:45:17 51°27.971 2°27.683 325.8 12.4 319 26.1
2006-05-10 08:46:16 51°28.121 2°27.465 322.2 12.4 316 24
2006-05-10 08:47:16 51°28.243 2°27.195 305.5 12.7 302 33.7
2006-05-10 08:48:16 51°28.396 2°26.975 337.5 12.6 335 32.5
2006-05-10 08:49:16 51°28.587 2°26.855 346.1 10 342 35.7
2006-05-10 08:50:17 51°28.703 2°26.846 14.7 5.7 15 36.3
2006-05-10 08:51:17 51°28.767 2°26.924 47.1 4.3 48 36.4
2006-05-10 08:52:16 51°28.8 2°26.996 54.9 2.7 60 36
2006-05-10 08:53:16 51°28.818 2°27.051 58.9 2 65 36.3
2006-05-10 08:54:16 51°28.833 2°27.093 45.8 1.7 55 35.9
2006-05-10 08:55:16 51°28.852 2°27.122 21.7 1.5 33 35.7
2006-05-10 08:56:17 51°28.872 2°27.137 358.2 1.2 16 36.1
2006-05-10 08:57:17 51°28.889 2°27.143 340.3 0.9 10 36.1
2006-05-10 08:58:17 51°28.899 2°27.142 319.2 0.4 350 36.1
2006-05-10 08:59:17 51°28.904 2°27.139 295.5 0.3 299 36.1
2006-05-10 09:00:17 51°28.897 2°27.111 245.8 2 231 36.3
2006-05-10 09:01:17 51°28.851 2°27.058 225.4 4.1 216 36.4
2006-05-10 09:02:17 51°28.819 2°27.028 229.1 0.7 178 36.3
2006-05-10 09:03:17 51°28.813 2°27.037 228.6 0.5 144 36.4
2006-05-10 09:04:16 51°28.808 2°27.047 231.5 0.5 140 36.4
2006-05-10 09:05:16 51°28.802 2°27.057 237 0.5 133 36.4
2006-05-10 09:06:17 51°28.797 2°27.066 242.7 0.5 129 36.6
2006-05-10 09:07:17 51°28.792 2°27.077 245.7 0.5 123 36
2006-05-10 09:08:16 51°28.788 2°27.088 250.4 0.4 109 35.7
2006-05-10 09:09:17 51°28.786 2°27.098 257.3 0.4 111 35.7
2006-05-10 09:10:17 51°28.784 2°27.108 262 0.4 102 35.6
2006-05-10 09:11:17 51°28.783 2°27.116 265.7 0.3 108 35.6
2006-05-10 09:12:17 51°28.781 2°27.125 269.2 0.2 91 35.8
2006-05-10 09:13:17 51°28.779 2°27.134 271.4 0.4 111 35.5
2006-05-10 09:14:17 51°28.778 2°27.142 273.3 0.3 88 35.5
2006-05-10 09:15:17 51°28.778 2°27.151 277.8 0.3 97 35.6
2006-05-10 09:16:16 51°28.78 2°27.112 271.4 4 265 35.7
2006-05-10 09:17:17 51°28.721 2°27.025 206.6 4.3 200 36.3
2006-05-10 09:18:16 51°28.67 2°27.017 190.9 2.6 176 36.2
2006-05-10 09:19:17 51°28.632 2°27.027 183 2.2 167 35.9
2006-05-10 09:20:16 51°28.562 2°27.098 152.4 7.3 147 36.3
2006-05-10 09:21:17 51°28.412 2°27.18 173.8 11.1 168 35.1
2006-05-10 09:22:17 51°28.213 2°27.242 173.4 12.6 168 35.1
2006-05-10 09:23:16 51°28.009 2°27.312 174.4 12.6 169 29.5
2006-05-10 09:24:17 51°27.801 2°27.391 170.7 12.7 163 23.5
2006-05-10 09:25:17 51°27.595 2°27.473 172.8 12.7 166 29.3
2006-05-10 09:26:17 51°27.39 2°27.548 170.3 12.5 165 34
2006-05-10 09:27:17 51°27.188 2°27.627 173 12.4 168 36
2006-05-10 09:28:17 51°26.986 2°27.697 173.2 12.3 169 36.6
2006-05-10 09:29:17 51°26.783 2°27.771 173.2 12.4 168 36.8
2006-05-10 09:30:17 51°26.581 2°27.849 171.6 12.4 166 37.3
2006-05-10 09:31:17 51°26.38 2°27.933 171.6 12.6 167 36.1
2006-05-10 09:32:17 51°26.18 2°28.012 172.7 12.4 166 36
2006-05-10 09:33:17 51°25.979 2°28.095 170.5 12.6 163 35.4
2006-05-10 09:34:17 51°25.779 2°28.18 173.4 12.6 165 34
2006-05-10 09:35:17 51°25.58 2°28.249 174.2 12.2 168 27.2
2006-05-10 09:36:17 51°25.379 2°28.329 174.4 12.4 166 17.6
2006-05-10 09:37:17 51°25.176 2°28.412 175.2 12.5 164 14.6
2006-05-10 09:38:16 51°24.97 2°28.487 176.7 12.7 169 16.8
2006-05-10 09:39:17 51°24.759 2°28.556 176.8 12.8 169 25.4
2006-05-10 09:40:17 51°24.555 2°28.619 175.5 12.4 168 33.4
2006-05-10 09:41:17 51°24.355 2°28.637 185 12.1 181 35
2006-05-10 09:42:17 51°24.15 2°28.639 184.4 12.4 179 35.2
2006-05-10 09:43:17 51°23.945 2°28.63 188.1 12.4 183 35.4
2006-05-10 09:44:17 51°23.739 2°28.622 183.8 12.4 179 36.7
2006-05-10 09:45:16 51°23.537 2°28.636 184 12.4 177 36.6
2006-05-10 09:46:16 51°23.331 2°28.656 182.1 12.3 175 36.1
2006-05-10 09:47:16 51°23.131 2°28.675 182.4 11.9 177 36.1
2006-05-10 09:48:16 51°22.932 2°28.689 182.8 11.9 176 35.9
2006-05-10 09:49:16 51°22.737 2°28.755 171.5 12.1 164 35.7
2006-05-10 09:50:17 51°22.539 2°28.854 168.1 12.2 161 35.6
2006-05-10 09:51:17 51°22.349 2°28.967 164.6 12.3 155 35.7
2006-05-10 09:52:17 51°22.161 2°29.101 162.7 12.5 157 35.4
2006-05-10 09:53:17 51°21.974 2°29.229 165.5 12.2 158 35
2006-05-10 09:54:16 51°21.788 2°29.36 164 12.3 156 35
2006-05-10 09:55:17 51°21.595 2°29.491 165.4 12.4 155 34.2
2006-05-10 09:56:16 51°21.402 2°29.536 181.8 12.1 176 31.3
2006-05-10 09:57:16 51°21.203 2°29.586 176.1 12.1 169 29.2
2006-05-10 09:58:17 51°20.999 2°29.656 175.2 12.4 168 26
2006-05-10 09:59:16 51°20.803 2°29.733 174 12.1 167 30.2
2006-05-10 10:00:17 51°20.604 2°29.8 177.9 11.9 172 31.8
2006-05-10 10:01:16 51°20.412 2°29.85 177.7 11.8 169 32.6
2006-05-10 10:02:16 51°20.232 2°29.901 176.2 8.2 164 29.3
2006-05-10 10:03:17 51°20.148 2°29.939 194.4 3.5 172 22.2
2006-05-10 10:04:16 51°20.115 2°29.951 220.1 1.1 123 17
2006-05-10 10:05:16 51°20.108 2°29.969 236.3 0.7 135 15.2
2006-05-10 10:06:16 51°20.096 2°29.986 215.4 1.2 138 17.1
2006-05-10 10:07:16 51°20.079 2°30.018 189.5 1.8 124 16.9
2006-05-10 10:08:17 51°20.062 2°30.073 164 2.5 114 15
2006-05-10 10:09:17 51°20.048 2°30.141 138.9 2.9 104 17
2006-05-10 10:10:16 51°20.042 2°30.215 115.6 2.9 93 14.6
2006-05-10 10:11:17 51°20.043 2°30.29 100.2 2.6 88 16.5
2006-05-10 10:12:16 51°20.047 2°30.352 87.6 2 86 16
2006-05-10 10:13:17 51°20.051 2°30.372 100.6 0.7 54 -999
2006-05-10 10:14:16 51°20.058 2°30.394 108.3 1 73 15.1
2006-05-10 10:15:13 51°20.064 2°30.42 119.1 1.2 69 16.4
2006-05-10 10:16:16 51°20.07 2°30.453 122.7 1.3 78 16.1
2006-05-10 10:17:17 51°20.075 2°30.489 124.2 1.4 80 17.4
2006-05-10 10:18:16 51°20.079 2°30.528 118.2 1.7 81 15.1
2006-05-10 10:19:17 51°20.082 2°30.575 114.4 1.7 88 16.7
2006-05-10 10:20:16 51°20.083 2°30.621 112.8 1.9 87 16.1
2006-05-10 10:21:16 51°20.083 2°30.671 111.3 1.9 90 17.4
2006-05-10 10:22:16 51°20.085 2°30.72 111.3 1.9 88 17.8
2006-05-10 10:23:16 51°20.086 2°30.771 110.4 1.9 88 18.9
2006-05-10 10:24:16 51°20.088 2°30.821 103.7 2 87 18.5
2006-05-10 10:25:16 51°20.091 2°30.871 96.9 1.9 87 20.6
2006-05-10 10:26:16 51°20.094 2°30.921 92.1 1.8 81 20.7
2006-05-10 10:27:17 51°20.097 2°30.97 90.7 1.9 86 22
2006-05-10 10:28:17 51°20.1 2°31.03 91.6 3.1 88 21.8
2006-05-10 10:29:17 51°20.075 2°31.171 132.6 7.2 125 22.5
2006-05-10 10:30:17 51°19.966 2°31.288 158.9 8.6 148 28
2006-05-10 10:31:16 51°19.83 2°31.465 143.7 12.3 138 32.2
2006-05-10 10:32:17 51°19.671 2°31.707 144.5 12.9 136 32.3
2006-05-10 10:33:17 51°19.522 2°31.949 142.7 12.8 135 32.6
2006-05-10 10:34:17 51°19.37 2°32.189 142.6 12.9 135 33
2006-05-10 10:35:17 51°19.219 2°32.441 143 13.3 134 32.2
2006-05-10 10:36:17 51°19.067 2°32.684 144 12.9 134 32.3
2006-05-10 10:37:16 51°18.921 2°32.926 143.5 12.9 134 31.3
2006-05-10 10:38:17 51°18.77 2°33.176 143.4 12.8 136 27
2006-05-10 10:39:17 51°18.621 2°33.421 142.7 12.8 136 23
2006-05-10 10:40:17 51°18.47 2°33.667 142.8 13.3 134 19.5
2006-05-10 10:41:16 51°18.319 2°33.911 142.7 13.1 133 26
2006-05-10 10:42:17 51°18.162 2°34.162 143.2 13.1 134 29.3
2006-05-10 10:43:16 51°18.011 2°34.411 144.6 13.2 135 30.3
2006-05-10 10:44:16 51°17.859 2°34.668 143.7 13.3 133 26.7
2006-05-10 10:45:16 51°17.706 2°34.926 142.6 13.7 133 20.6
2006-05-10 10:46:16 51°17.548 2°35.182 142.4 13.5 135 15.3
2006-05-10 10:47:16 51°17.387 2°35.434 141.8 13.5 135 12.3
2006-05-10 10:48:16 51°17.228 2°35.688 141.9 13.4 133 16.6
2006-05-10 10:49:16 51°17.076 2°35.952 138.3 13.5 131 23.8
2006-05-10 10:50:16 51°16.928 2°36.219 139.7 13.4 131 28.8
2006-05-10 10:51:16 51°16.789 2°36.491 140.2 13.1 130 29.1
2006-05-10 10:52:16 51°16.678 2°36.718 139 7.9 124 28.6
2006-05-10 10:53:16 51°16.632 2°36.823 151.4 3 109 28.7
2006-05-10 10:54:16 51°16.637 2°36.881 114.1 2.2 74 29.1
2006-05-10 10:55:16 51°16.653 2°36.945 80.7 2.8 63 29.1
2006-05-10 10:56:17 51°16.679 2°37.013 53.1 3 54 28.8
2006-05-10 10:57:17 51°16.714 2°37.067 22.3 2.9 38 28.8
2006-05-10 10:58:17 51°16.751 2°37.1 344.8 2.3 23 28.8
2006-05-10 10:59:17 51°16.783 2°37.11 302.6 1.7 -999 29.2
2006-05-10 11:00:16 51°16.801 2°37.104 258.1 0.8 342 29.3
2006-05-10 11:01:17 51°16.794 2°37.102 207.6 1.7 176 29.3
2006-05-10 11:02:17 51°16.738 2°37.065 224 4.8 218 28.8
2006-05-10 11:03:16 51°16.685 2°36.953 236.1 5.6 233 28.6
2006-05-10 11:04:17 51°16.626 2°36.844 236.6 4.5 235 28.7
2006-05-10 11:05:17 51°16.627 2°36.809 273.9 1.2 19 28.8
2006-05-10 11:06:16 51°16.649 2°36.823 308.2 1.5 29 28.9
2006-05-10 11:07:17 51°16.672 2°36.844 320.2 1.7 32 28.9
2006-05-10 11:08:16 51°16.695 2°36.869 326.9 1.7 33 28.5
2006-05-10 11:09:16 51°16.717 2°36.895 328.9 1.6 38 28.7
2006-05-10 11:10:17 51°16.739 2°36.922 328.3 1.6 40 28.8
2006-05-10 11:11:17 51°16.76 2°36.951 328 1.7 42 29
2006-05-10 11:12:16 51°16.779 2°36.979 325.2 1.5 41 29.1
2006-05-10 11:13:17 51°16.799 2°37.007 320 1.5 44 29.2
2006-05-10 11:14:17 51°16.817 2°37.037 312.5 1.5 47 29.3
2006-05-10 11:15:16 51°16.834 2°37.067 304.8 1.5 47 29.8
2006-05-10 11:16:17 51°16.851 2°37.097 295.6 1.5 51 30.1
2006-05-10 11:17:17 51°16.867 2°37.127 286.8 1.5 52 30.3
2006-05-10 11:18:16 51°16.883 2°37.157 279.7 1.5 53 30.2
2006-05-10 11:19:16 51°16.897 2°37.175 265.6 1 307 30.3
2006-05-10 11:20:17 51°16.904 2°37.09 280.8 5.6 296 30.2
2006-05-10 11:21:17 51°17.029 2°37.04 8.8 10.1 16 29.6
2006-05-10 11:22:16 51°17.125 2°37.272 82 11.6 74 29.3
2006-05-10 11:23:17 51°17.128 2°37.578 115.9 11.1 107 28.9
2006-05-10 11:24:17 51°17.007 2°37.72 186.7 9 176 29.3
2006-05-10 11:25:17 51°16.841 2°37.692 198.8 10.7 190 28.8
2006-05-10 11:26:16 51°16.658 2°37.635 198.3 11.7 191 27.6
2006-05-10 11:27:16 51°16.468 2°37.575 195.2 12 185 24.7
2006-05-10 11:28:16 51°16.272 2°37.545 195.2 11.8 188 17.9
2006-05-10 11:29:16 51°16.075 2°37.515 193.2 12 182 12.9
2006-05-10 11:30:16 51°15.876 2°37.523 183.9 12.2 173 11.7
2006-05-10 11:31:16 51°15.675 2°37.584 176.1 12.6 163 13.4
2006-05-10 11:32:17 51°15.473 2°37.692 168.6 12.8 159 13.3
2006-05-10 11:33:16 51°15.283 2°37.83 161.3 12.8 150 13
2006-05-10 11:34:16 51°15.093 2°37.993 161.8 13 152 13.7
2006-05-10 11:35:17 51°14.902 2°38.164 158 13.1 147 17
2006-05-10 11:36:17 51°14.715 2°38.334 159.9 13 150 18.5
2006-05-10 11:37:17 51°14.528 2°38.501 158.9 12.8 151 19.4
2006-05-10 11:38:17 51°14.34 2°38.656 161.6 12.8 151 19.8
2006-05-10 11:39:17 51°14.15 2°38.804 166.2 12.6 157 15.2
2006-05-10 11:40:15 51°13.956 2°38.882 182.2 12.2 178 15.3
2006-05-10 11:41:17 51°13.75 2°38.81 202.8 12.2 198 16.3
2006-05-10 11:42:16 51°13.563 2°38.694 207.1 12.1 201 16.7
2006-05-10 11:43:17 51°13.368 2°38.583 205.1 12.1 198 16.4
2006-05-10 11:44:17 51°13.181 2°38.456 210.6 12.2 204 16.3
2006-05-10 11:45:17 51°12.997 2°38.32 207.6 12.1 202 16
2006-05-10 11:46:17 51°12.811 2°38.195 207.1 12 201 15.5
2006-05-10 11:47:17 51°12.62 2°38.085 205.9 12.2 200 15.3
2006-05-10 11:48:17 51°12.43 2°37.975 204.1 12.2 199 15.1
2006-05-10 11:49:17 51°12.239 2°37.866 205.8 12.2 202 15.1
2006-05-10 11:50:17 51°12.054 2°37.743 206.6 12.2 202 15.6
2006-05-10 11:51:17 51°11.869 2°37.614 208.9 12.2 205 15.8
2006-05-10 11:52:17 51°11.686 2°37.48 209.8 12 206 16
2006-05-10 11:53:16 51°11.506 2°37.354 209.7 12.1 205 15.9
2006-05-10 11:54:17 51°11.323 2°37.21 210.8 12 208 15.5
2006-05-10 11:55:17 51°11.142 2°37.079 207.1 11.9 202 14.8
2006-05-10 11:56:17 51°10.959 2°36.958 205 11.9 201 13.8
2006-05-10 11:57:17 51°10.768 2°36.863 197.4 12 193 12.1
2006-05-10 11:58:17 51°10.574 2°36.795 193.7 11.8 185 11.1
2006-05-10 11:59:17 51°10.388 2°36.899 151 12.7 142 16.2
2006-05-10 12:00:17 51°10.299 2°37.218 108.6 13.8 101 19.8
2006-05-10 12:01:17 51°10.313 2°37.582 86.9 13.9 83 19.9
2006-05-10 12:02:17 51°10.351 2°37.944 83.7 13.8 79 19.7
2006-05-10 12:03:17 51°10.398 2°38.304 84.1 13.9 80 19
2006-05-10 12:04:17 51°10.449 2°38.665 79.2 14 75 18.4
2006-05-10 12:05:17 51°10.505 2°39.026 79.6 14.1 74 18
2006-05-10 12:06:17 51°10.564 2°39.388 80.3 14.1 76 17.2
2006-05-10 12:07:17 51°10.62 2°39.75 81.2 14 76 16.7
2006-05-10 12:08:17 51°10.688 2°40.105 77.2 14 73 15.9
2006-05-10 12:09:17 51°10.744 2°40.464 82.2 14 77 15.4
2006-05-10 12:10:17 51°10.79 2°40.83 84.9 14.1 80 14.7
2006-05-10 12:11:17 51°10.829 2°41.195 83.8 13.9 80 14.4
2006-05-10 12:12:17 51°10.874 2°41.55 79.2 12.4 75 14.4
2006-05-10 12:13:17 51°10.923 2°41.766 66.9 6.8 65 14.7
2006-05-10 12:14:17 51°10.963 2°41.868 53.4 2.8 59 14.6
2006-05-10 12:15:17 51°10.977 2°41.92 79.4 2.1 71 14.7
2006-05-10 12:16:17 51°10.986 2°41.971 80.5 1.9 73 14.6
2006-05-10 12:17:17 51°10.995 2°42.018 77.4 1.8 71 14.6
2006-05-10 12:18:17 51°11.003 2°42.062 73.4 1.7 72 14.6
2006-05-10 12:19:17 51°11.011 2°42.105 66 1.8 69 14.6
2006-05-10 12:20:17 51°11.024 2°42.149 48.1 1.9 62 14.6
2006-05-10 12:21:17 51°11.041 2°42.191 29.2 1.9 53 14.6
2006-05-10 12:22:17 51°11.061 2°42.226 9.7 1.6 46 14.5
2006-05-10 12:23:18 51°11.057 2°42.256 0.7 2.1 147 -999
2006-05-10 12:24:17 51°11.047 2°42.285 353 1.1 86 14.6
2006-05-10 12:25:17 51°11.047 2°42.313 358.1 1.1 89 14.6
2006-05-10 12:26:17 51°11.047 2°42.34 3.7 1 89 14.6
2006-05-10 12:27:17 51°11.047 2°42.366 7.9 1 88 14.5
2006-05-10 12:28:17 51°11.046 2°42.392 14.5 1 90 14.5
2006-05-10 12:29:17 51°11.045 2°42.417 24.6 1 90 14.5
2006-05-10 12:30:17 51°11.045 2°42.442 34.8 0.9 88 14.6
2006-05-10 12:31:17 51°11.045 2°42.466 46.3 0.9 88 14.5
2006-05-10 12:32:17 51°11.046 2°42.489 55.7 0.9 84 14.5
2006-05-10 12:33:17 51°11.049 2°42.514 64.7 0.9 79 14.5
2006-05-10 12:34:17 51°11.052 2°42.54 71.9 1 79 14.4
2006-05-10 12:35:17 51°11.055 2°42.566 78.3 1.1 76 14.5
2006-05-10 12:36:17 51°11.058 2°42.594 84.7 1.1 81 14.4
2006-05-10 12:37:17 51°11.06 2°42.623 89 1.1 82 14.6
2006-05-10 12:38:17 51°11.063 2°42.66 89.6 2 82 14.5
2006-05-10 12:39:16 51°11.089 2°42.759 52.9 6.4 48 14.4
2006-05-10 12:40:16 51°11.224 2°42.843 9.8 10.6 11 14.2
2006-05-10 12:41:16 51°11.424 2°42.92 13.5 13.3 15 13.1
2006-05-10 12:42:17 51°11.637 2°43.047 24.5 13.5 25 12
2006-05-10 12:43:17 51°11.835 2°43.218 31.3 13.6 30 10
2006-05-10 12:44:17 51°12.032 2°43.392 28.9 13.6 28 10.7
2006-05-10 12:45:17 51°12.221 2°43.59 40.3 13.6 38 12.5
2006-05-10 12:46:17 51°12.4 2°43.808 38.5 13.5 36 13
2006-05-10 12:47:17 51°12.574 2°44.036 42.9 13.5 40 13.8
2006-05-10 12:48:17 51°12.744 2°44.272 46 13.5 44 13.9
2006-05-10 12:49:17 51°12.91 2°44.511 43.9 13.5 40 14
2006-05-10 12:50:17 51°13.078 2°44.747 45.1 13.6 42 13.7
2006-05-10 12:51:17 51°13.247 2°44.985 45.3 13.6 42 13.4
2006-05-10 12:52:17 51°13.414 2°45.225 44.9 13.5 42 12.4
2006-05-10 12:53:17 51°13.58 2°45.469 47.3 13.5 43 10.8
2006-05-10 12:54:17 51°13.747 2°45.709 46.8 13.6 43 10.3
2006-05-10 12:55:17 51°13.915 2°45.952 45.2 13.6 41 10.9
2006-05-10 12:56:17 51°14.081 2°46.19 46.7 13.4 43 11.7
2006-05-10 12:57:17 51°14.248 2°46.422 44.6 13.3 42 14.3
2006-05-10 12:58:17 51°14.417 2°46.646 39.3 13.2 36 13.7
2006-05-10 12:59:17 51°14.594 2°46.858 42.7 13.3 39 14.4
2006-05-10 13:00:16 51°14.767 2°47.071 40.9 13.4 39 14.3
2006-05-10 13:01:16 51°14.942 2°47.294 40.3 13.5 37 12.7
2006-05-10 13:02:16 51°15.117 2°47.516 41.4 13.5 38 11.1
2006-05-10 13:03:17 51°15.295 2°47.739 42.2 13.4 38 11.2
2006-05-10 13:04:17 51°15.471 2°47.959 42.5 13.5 39 12
2006-05-10 13:05:17 51°15.649 2°48.174 39 13.4 35 12.8
2006-05-10 13:06:17 51°15.822 2°48.399 42.1 13.5 40 13.9
2006-05-10 13:07:15 51°15.992 2°48.618 44.7 13.6 42 15
2006-05-10 13:08:17 51°16.154 2°48.889 48.4 13.8 45 15.4
2006-05-10 13:09:17 51°16.318 2°49.145 47.8 13.8 45 15.8
2006-05-10 13:10:17 51°16.478 2°49.402 48.1 13.6 45 16
2006-05-10 13:11:16 51°16.609 2°49.684 64.9 13.7 61 15.7
2006-05-10 13:12:17 51°16.729 2°49.997 61.8 13.5 58 14.9
2006-05-10 13:13:17 51°16.893 2°50.22 28.3 13.3 25 13.4
2006-05-10 13:14:16 51°17.104 2°50.312 15.9 13.2 13 11.5
2006-05-10 13:15:16 51°17.319 2°50.41 18.4 13.5 15 10.5
2006-05-10 13:16:17 51°17.538 2°50.51 20.5 13.4 17 11.9
2006-05-10 13:17:17 51°17.75 2°50.625 23.1 13.5 20 13.1
2006-05-10 13:18:17 51°17.956 2°50.738 22.5 12.1 19 13.7
2006-05-10 13:19:17 51°18.105 2°50.832 25.1 8.3 22 14.1
2006-05-10 13:20:17 51°18.22 2°50.914 30.3 6.5 27 14.4
2006-05-10 13:21:17 51°18.26 2°50.955 52.2 0.5 21 14.5
2006-05-10 13:22:17 51°18.27 2°50.97 76.7 1.2 51 14.5
2006-05-10 13:23:17 51°18.282 2°51.008 79.4 1.8 63 14.4
2006-05-10 13:24:17 51°18.298 2°51.052 67.3 2 55 14.5
2006-05-10 13:25:17 51°18.319 2°51.092 52.3 2 46 14.4
2006-05-10 13:26:17 51°18.345 2°51.129 43.9 2 39 14.5
2006-05-10 13:27:17 51°18.372 2°51.164 40.7 2.1 39 14.5
2006-05-10 13:28:16 51°18.401 2°51.197 37.2 2.1 35 14.5
2006-05-10 13:29:17 51°18.43 2°51.231 36.6 2.2 36 14.6
2006-05-10 13:30:18 51°18.438 2°51.24 43.9 0.1 253 -999
2006-05-10 13:31:17 51°18.438 2°51.238 50.1 -999 63 14.6
2006-05-10 13:32:17 51°18.439 2°51.238 55.5 0.2 357 14.6
2006-05-10 13:33:17 51°18.44 2°51.239 63.8 0.1 29 14.6
2006-05-10 13:34:17 51°18.442 2°51.239 73.3 0.2 15 14.5
2006-05-10 13:35:17 51°18.446 2°51.241 83.5 0.3 16 14.6
2006-05-10 13:36:17 51°18.449 2°51.245 91.5 0.2 39 14.6
2006-05-10 13:37:17 51°18.453 2°51.25 98 0.4 43 14.6
2006-05-10 13:38:17 51°18.458 2°51.258 103.8 0.4 48 14.6
2006-05-10 13:39:17 51°18.461 2°51.269 107.4 0.4 61 14.5
2006-05-10 13:40:17 51°18.444 2°51.312 145.3 4.4 137 14.4
2006-05-10 13:41:17 51°18.314 2°51.451 152.2 11.6 149 13.3
2006-05-10 13:42:17 51°18.132 2°51.618 154.2 12.9 151 12.2
2006-05-10 13:43:17 51°17.948 2°51.785 157.4 12.7 153 11.3
2006-05-10 13:44:17 51°17.758 2°51.938 156.8 12.8 152 11.1
2006-05-10 13:45:16 51°17.573 2°52.084 160.4 12.8 156 11.4
2006-05-10 13:46:16 51°17.378 2°52.208 162.5 12.6 156 11.3
2006-05-10 13:47:17 51°17.179 2°52.331 161.4 12.6 157 11.1
2006-05-10 13:48:17 51°16.986 2°52.47 161.9 12.7 157 10.3
2006-05-10 13:49:18 51°16.788 2°52.606 159.1 12.8 154 10.7
2006-05-10 13:50:17 51°16.603 2°52.756 160.3 12.7 154 12.2
2006-05-10 13:51:17 51°16.411 2°52.893 160 12.5 154 12.7
2006-05-10 13:52:17 51°16.215 2°53.029 160.5 13 155 12.6
2006-05-10 13:53:17 51°16.017 2°53.153 162.5 12.8 157 12.4
2006-05-10 13:54:17 51°15.818 2°53.282 161.5 12.8 157 12
2006-05-10 13:55:17 51°15.619 2°53.399 163.7 12.8 160 11.4
2006-05-10 13:56:17 51°15.423 2°53.518 163.1 12.7 161 10.9
2006-05-10 13:57:17 51°15.238 2°53.634 160.9 11.3 158 10.5
2006-05-10 13:58:17 51°15.068 2°53.732 161.8 10.7 159 10.1
2006-05-10 13:59:16 51°14.904 2°53.827 162.7 10.6 160 10.1
2006-05-10 14:00:17 51°14.756 2°53.984 131.1 11.1 126 10.5
2006-05-10 14:01:16 51°14.645 2°54.232 128.4 12.1 125 11.2
2006-05-10 14:02:17 51°14.54 2°54.516 122.8 12.3 118 11.5
2006-05-10 14:03:17 51°14.437 2°54.798 124.1 12.2 120 10.7
2006-05-10 14:04:17 51°14.342 2°55.076 123.3 12 119 10.6
2006-05-10 14:05:18 51°14.231 2°55.301 140.4 8.5 139 -999
2006-05-10 14:06:17 51°14.14 2°55.399 146.1 5.9 142 -999
2006-05-10 14:07:16 51°14.071 2°55.492 143.7 5.3 140 5
2006-05-10 14:08:18 51°13.97 2°55.584 160.1 8.3 157 -999
2006-05-10 14:09:17 51°13.84 2°55.638 168.4 7.1 165 10.7
2006-05-10 14:10:17 51°13.752 2°55.694 146.6 5 142 10.6
2006-05-10 14:11:18 51°13.699 2°55.793 129.9 4.9 127 -999
2006-05-10 14:12:16 51°13.662 2°55.882 123.9 3.6 120 9.5
2006-05-10 14:13:16 51°13.635 2°55.956 124.8 3.1 121 9.5
2006-05-10 14:14:17 51°13.614 2°56.023 113.9 2.5 110 9.6
2006-05-10 14:15:17 51°13.605 2°56.077 105 1.7 103 8.9
2006-05-10 14:16:19 51°13.601 2°56.096 108.6 0.3 127 5.9
2006-05-10 14:17:21 51°13.601 2°56.099 107.8 0.1 224 -999
2006-05-10 14:18:21 51°13.602 2°56.1 116.1 0.1 21 -999
2006-05-10 14:19:21 51°13.602 2°56.1 124.9 -999 57 -999
2006-05-10 14:20:21 51°13.602 2°56.098 129.6 -999 308 -999
2006-05-10 14:21:21 51°13.602 2°56.099 126.4 0.1 163 -999